createdAt,value
2022-08-26T00:02:05.596Z,21.30
2022-08-26T00:04:52.951Z,21.20
2022-08-26T00:07:40.309Z,21.20
2022-08-26T00:10:30.654Z,21.20
2022-08-26T00:13:19.727Z,21.10
2022-08-26T00:16:08.626Z,21.10
2022-08-26T00:18:58.976Z,21.00
2022-08-26T00:21:46.015Z,21.00
2022-08-26T00:24:33.717Z,21.00
2022-08-26T00:27:21.109Z,20.90
2022-08-26T00:30:14.581Z,20.90
2022-08-26T00:33:03.288Z,20.90
2022-08-26T00:35:52.891Z,20.80
2022-08-26T00:38:40.382Z,20.80
2022-08-26T00:41:29.785Z,20.80
2022-08-26T00:44:17.391Z,20.70
2022-08-26T00:47:10.773Z,20.70
2022-08-26T00:49:59.265Z,20.70
2022-08-26T00:52:48.266Z,20.70
2022-08-26T00:55:41.745Z,20.60
2022-08-26T00:58:32.970Z,20.60
2022-08-26T01:01:23.000Z,20.60
2022-08-26T01:04:13.005Z,20.50
2022-08-26T01:07:01.342Z,20.50
2022-08-26T01:09:48.830Z,20.50
2022-08-26T01:12:41.862Z,20.50
2022-08-26T01:15:33.730Z,20.40
2022-08-26T01:18:21.680Z,20.20
2022-08-26T01:21:22.264Z,20.30
2022-08-26T01:24:13.891Z,20.30
2022-08-26T01:27:05.267Z,20.30
2022-08-26T01:29:53.784Z,20.20
2022-08-26T01:32:41.788Z,20.20
2022-08-26T01:35:29.549Z,20.20
2022-08-26T01:38:18.186Z,20.20
2022-08-26T01:41:19.699Z,20.20
2022-08-26T01:44:10.140Z,20.20
2022-08-26T01:46:59.737Z,20.10
2022-08-26T01:49:52.160Z,20.10
2022-08-26T01:52:44.391Z,20.10
2022-08-26T01:55:35.686Z,20.10
2022-08-26T01:58:30.454Z,20.10
2022-08-26T02:01:18.944Z,20.00
2022-08-26T02:04:14.610Z,20.00
2022-08-26T02:07:06.727Z,20.00
2022-08-26T02:09:56.978Z,19.90
2022-08-26T02:12:44.265Z,19.90
2022-08-26T02:15:34.630Z,19.90
2022-08-26T02:18:22.567Z,19.90
2022-08-26T02:21:12.269Z,19.80
2022-08-26T02:24:09.609Z,19.80
2022-08-26T02:26:58.590Z,19.80
2022-08-26T02:29:50.443Z,19.80
2022-08-26T02:32:42.782Z,19.80
2022-08-26T02:35:30.464Z,19.80
2022-08-26T02:38:17.714Z,19.70
2022-08-26T02:41:05.751Z,19.70
2022-08-26T02:43:56.061Z,19.70
2022-08-26T02:46:43.679Z,19.70
2022-08-26T02:49:39.166Z,19.60
2022-08-26T02:52:26.995Z,19.60
2022-08-26T02:55:16.234Z,19.60
2022-08-26T02:58:03.877Z,19.60
2022-08-26T03:00:52.546Z,19.60
2022-08-26T03:03:41.248Z,19.60
2022-08-26T03:06:30.711Z,19.60
2022-08-26T03:09:19.733Z,19.60
2022-08-26T03:12:07.241Z,19.60
2022-08-26T03:14:54.972Z,19.50
2022-08-26T03:17:42.326Z,19.50
2022-08-26T03:20:30.881Z,19.50
2022-08-26T03:23:19.202Z,19.50
2022-08-26T03:26:08.454Z,19.40
2022-08-26T03:29:12.232Z,19.40
2022-08-26T03:31:58.210Z,19.40
2022-08-26T03:34:43.928Z,19.40
2022-08-26T03:37:29.927Z,19.40
2022-08-26T03:40:20.841Z,19.30
2022-08-26T03:43:11.839Z,19.30
2022-08-26T03:46:00.650Z,19.30
2022-08-26T03:48:48.359Z,19.30
2022-08-26T03:51:39.046Z,19.30
2022-08-26T03:54:26.292Z,19.30
2022-08-26T03:57:15.029Z,19.30
2022-08-26T04:00:06.364Z,19.20
2022-08-26T04:02:55.792Z,19.20
2022-08-26T04:05:42.862Z,19.20
2022-08-26T04:08:30.196Z,19.20
2022-08-26T04:11:20.715Z,19.10
2022-08-26T04:14:14.375Z,19.20
2022-08-26T04:17:06.197Z,19.10
2022-08-26T04:19:54.828Z,19.10
2022-08-26T04:22:42.847Z,19.10
2022-08-26T04:25:30.051Z,19.10
2022-08-26T04:28:17.415Z,19.10
2022-08-26T04:31:09.125Z,19.10
2022-08-26T04:33:56.810Z,19.10
2022-08-26T04:36:45.373Z,19.10
2022-08-26T04:39:32.982Z,19.10
2022-08-26T04:42:25.993Z,19.10
2022-08-26T04:45:14.176Z,19.10
2022-08-26T04:48:02.735Z,19.10
2022-08-26T04:50:52.323Z,19.10
2022-08-26T04:53:39.629Z,19.10
2022-08-26T04:56:30.056Z,19.10
2022-08-26T04:59:18.559Z,19.20
2022-08-26T05:02:07.109Z,19.20
2022-08-26T05:04:55.800Z,19.20
2022-08-26T05:07:43.300Z,19.20
2022-08-26T05:10:30.686Z,19.30
2022-08-26T05:13:20.676Z,19.30
2022-08-26T05:16:11.673Z,19.30
2022-08-26T05:18:59.021Z,19.40
2022-08-26T05:21:49.417Z,19.40
2022-08-26T05:24:36.365Z,19.50
2022-08-26T05:27:26.523Z,19.50
2022-08-26T05:30:13.909Z,19.50
2022-08-26T05:33:01.667Z,19.60
2022-08-26T05:35:49.667Z,19.50
2022-08-26T05:38:37.905Z,19.60
2022-08-26T05:41:34.351Z,19.60
2022-08-26T05:44:23.929Z,19.60
2022-08-26T05:47:10.944Z,19.60
2022-08-26T05:49:58.049Z,19.70
2022-08-26T05:52:45.471Z,19.70
2022-08-26T05:55:33.760Z,19.70
2022-08-26T05:58:23.119Z,19.70
2022-08-26T06:01:16.022Z,19.70
2022-08-26T06:04:07.293Z,19.80
2022-08-26T06:06:55.082Z,19.70
2022-08-26T06:09:45.824Z,19.70
2022-08-26T06:12:35.685Z,19.80
2022-08-26T06:15:23.324Z,19.90
2022-08-26T06:18:11.928Z,19.90
2022-08-26T06:21:00.336Z,20.00
2022-08-26T06:24:02.939Z,20.10
2022-08-26T06:26:51.781Z,20.20
2022-08-26T06:29:39.421Z,20.30
2022-08-26T06:32:25.571Z,20.40
2022-08-26T06:35:13.130Z,20.40
2022-08-26T06:38:02.804Z,20.50
2022-08-26T06:40:53.289Z,20.50
2022-08-26T06:43:42.086Z,20.60
2022-08-26T06:46:31.646Z,20.70
2022-08-26T06:49:20.454Z,20.80
2022-08-26T06:52:17.187Z,20.80
2022-08-26T06:55:09.766Z,20.90
2022-08-26T06:57:59.229Z,21.00
2022-08-26T07:00:47.190Z,21.10
2022-08-26T07:03:39.638Z,21.20
2022-08-26T07:06:28.905Z,21.20
2022-08-26T07:09:16.935Z,21.30
2022-08-26T07:12:06.811Z,21.40
2022-08-26T07:14:56.012Z,21.50
2022-08-26T07:17:45.480Z,21.60
2022-08-26T07:20:37.563Z,21.70
2022-08-26T07:23:25.002Z,21.80
2022-08-26T07:26:16.416Z,21.90
2022-08-26T07:29:04.566Z,22.00
2022-08-26T07:31:52.176Z,22.10
2022-08-26T07:34:41.945Z,22.10
2022-08-26T07:37:31.037Z,22.20
2022-08-26T07:40:27.483Z,22.30
2022-08-26T07:43:15.829Z,22.40
2022-08-26T07:46:07.949Z,22.60
2022-08-26T07:49:00.619Z,22.60
2022-08-26T07:51:51.372Z,22.70
2022-08-26T07:54:40.740Z,22.80
2022-08-26T07:57:29.256Z,22.90
2022-08-26T08:00:18.167Z,23.00
2022-08-26T08:03:07.469Z,23.00
2022-08-26T08:05:55.184Z,23.20
2022-08-26T08:08:43.255Z,23.20
2022-08-26T08:11:32.466Z,23.30
2022-08-26T08:14:22.245Z,23.30
2022-08-26T08:17:09.894Z,23.40
2022-08-26T08:19:57.017Z,23.50
2022-08-26T08:22:45.451Z,23.60
2022-08-26T08:25:35.871Z,23.60
2022-08-26T08:28:23.988Z,23.70
2022-08-26T08:31:11.383Z,23.80
2022-08-26T08:33:59.340Z,23.80
2022-08-26T08:36:47.220Z,23.90
2022-08-26T08:39:34.315Z,23.90
2022-08-26T08:42:36.671Z,23.90
2022-08-26T08:45:36.283Z,24.00
2022-08-26T08:48:28.132Z,24.00
2022-08-26T08:51:23.720Z,24.00
2022-08-26T08:54:11.976Z,24.10
2022-08-26T08:57:06.393Z,24.10
2022-08-26T09:00:03.916Z,24.20
2022-08-26T09:02:59.863Z,24.30
2022-08-26T09:05:51.585Z,24.40
2022-08-26T09:08:38.707Z,24.50
2022-08-26T09:11:26.745Z,24.50
2022-08-26T09:14:14.342Z,24.60
2022-08-26T09:17:11.048Z,24.70
2022-08-26T09:20:11.104Z,24.80
2022-08-26T09:23:01.633Z,24.90
2022-08-26T09:25:52.465Z,25.00
2022-08-26T09:28:43.955Z,25.20
2022-08-26T09:31:35.330Z,25.50
2022-08-26T09:34:25.944Z,25.70
2022-08-26T09:37:15.406Z,26.00
2022-08-26T09:40:20.755Z,26.30
2022-08-26T09:43:13.690Z,26.50
2022-08-26T09:46:20.204Z,26.90
2022-08-26T09:49:26.419Z,27.20
2022-08-26T09:52:23.737Z,27.60
2022-08-26T09:55:16.276Z,27.90
2022-08-26T09:58:07.966Z,28.30
2022-08-26T10:01:01.642Z,28.70
2022-08-26T10:03:50.600Z,29.00
2022-08-26T10:06:43.069Z,29.30
2022-08-26T10:09:36.128Z,29.60
2022-08-26T10:12:25.269Z,29.70
2022-08-26T10:15:15.437Z,29.80
2022-08-26T10:18:09.575Z,29.90
2022-08-26T10:20:59.201Z,30.10
2022-08-26T10:23:50.875Z,30.10
2022-08-26T10:26:47.672Z,30.20
2022-08-26T10:29:40.763Z,30.30
2022-08-26T10:32:35.160Z,30.30
2022-08-26T10:35:24.752Z,30.50
2022-08-26T10:38:16.227Z,30.50
2022-08-26T10:41:10.333Z,30.60
2022-08-26T10:44:01.587Z,30.60
2022-08-26T10:46:52.174Z,30.70
2022-08-26T10:49:40.992Z,30.80
2022-08-26T10:52:38.208Z,30.90
2022-08-26T10:55:36.666Z,31.10
2022-08-26T10:58:39.311Z,31.30
2022-08-26T11:01:50.964Z,31.40
2022-08-26T11:04:48.514Z,31.40
2022-08-26T11:07:40.729Z,31.10
2022-08-26T11:10:57.942Z,31.00
2022-08-26T11:14:01.865Z,30.90
2022-08-26T11:16:53.208Z,30.90
2022-08-26T11:20:02.118Z,30.90
2022-08-26T11:22:52.472Z,31.00
2022-08-26T11:26:18.868Z,30.90
2022-08-26T11:30:01.121Z,31.00
2022-08-26T11:32:53.489Z,30.90
2022-08-26T11:35:51.182Z,30.80
2022-08-26T11:38:44.255Z,30.70
2022-08-26T11:41:32.996Z,30.60
2022-08-26T11:44:24.023Z,30.60
2022-08-26T11:47:17.845Z,30.60
2022-08-26T11:50:12.599Z,30.50
2022-08-26T11:53:06.069Z,30.50
2022-08-26T11:59:02.187Z,30.60
2022-08-26T12:01:52.671Z,30.70
2022-08-26T12:04:44.541Z,30.80
2022-08-26T12:07:34.330Z,30.90
2022-08-26T12:10:31.374Z,30.80
2022-08-26T12:13:25.065Z,30.70
2022-08-26T12:16:14.949Z,30.70
2022-08-26T12:19:22.725Z,30.70
2022-08-26T12:22:21.593Z,30.70
2022-08-26T12:25:12.666Z,30.70
2022-08-26T12:28:07.121Z,30.70
2022-08-26T12:31:04.886Z,30.80
2022-08-26T12:33:53.539Z,30.90
2022-08-26T12:36:47.050Z,31.00
2022-08-26T12:39:36.969Z,31.10
2022-08-26T12:42:43.021Z,31.30
2022-08-26T12:45:32.437Z,31.40
2022-08-26T12:48:26.509Z,31.50
2022-08-26T12:51:25.072Z,31.60
2022-08-26T12:54:17.143Z,31.60
2022-08-26T12:57:12.035Z,31.40
2022-08-26T13:00:29.343Z,31.40
2022-08-26T13:03:32.767Z,31.50
2022-08-26T13:06:30.179Z,31.60
2022-08-26T13:09:32.404Z,31.50
2022-08-26T13:12:29.814Z,31.60
2022-08-26T13:15:17.889Z,31.70
2022-08-26T13:18:05.909Z,31.70
2022-08-26T13:20:55.218Z,31.70
2022-08-26T13:23:43.138Z,31.60
2022-08-26T13:26:30.957Z,31.60
2022-08-26T13:29:18.958Z,31.60
2022-08-26T13:32:08.170Z,31.50
2022-08-26T13:34:59.730Z,31.60
2022-08-26T13:37:53.212Z,31.60
2022-08-26T13:40:41.186Z,31.60
2022-08-26T13:43:29.236Z,31.60
2022-08-26T13:46:17.066Z,31.60
2022-08-26T13:49:06.031Z,31.50
2022-08-26T13:51:53.495Z,31.40
2022-08-26T13:54:42.926Z,31.30
2022-08-26T13:57:31.309Z,31.30
2022-08-26T14:00:19.795Z,31.20
2022-08-26T14:03:12.624Z,31.20
2022-08-26T14:06:01.258Z,31.20
2022-08-26T14:08:49.692Z,31.10
2022-08-26T14:11:50.837Z,31.00
2022-08-26T14:14:42.502Z,30.90
2022-08-26T14:17:30.782Z,30.80
2022-08-26T14:20:24.289Z,30.70
2022-08-26T14:23:13.978Z,30.60
2022-08-26T14:26:03.937Z,30.70
2022-08-26T14:28:53.284Z,30.70
2022-08-26T14:31:40.898Z,30.70
2022-08-26T14:34:28.780Z,30.80
2022-08-26T14:37:16.956Z,30.80
2022-08-26T14:40:06.235Z,30.70
2022-08-26T14:42:55.494Z,30.70
2022-08-26T14:45:48.511Z,30.60
2022-08-26T14:48:36.119Z,30.50
2022-08-26T14:51:24.279Z,30.50
2022-08-26T14:54:14.172Z,30.40
2022-08-26T14:57:04.002Z,30.40
2022-08-26T14:59:51.723Z,30.40
2022-08-26T15:02:40.962Z,30.40
2022-08-26T15:05:28.675Z,30.50
2022-08-26T15:08:17.045Z,30.60
2022-08-26T15:11:05.860Z,30.60
2022-08-26T15:13:53.297Z,30.60
2022-08-26T15:16:41.485Z,30.60
2022-08-26T15:19:30.878Z,30.50
2022-08-26T15:22:18.485Z,30.60
2022-08-26T15:25:06.685Z,30.60
2022-08-26T15:27:54.558Z,30.50
2022-08-26T15:30:42.043Z,30.50
2022-08-26T15:33:29.969Z,30.50
2022-08-26T15:36:19.179Z,30.60
2022-08-26T15:39:08.780Z,30.50
2022-08-26T15:41:57.684Z,30.50
2022-08-26T15:44:45.881Z,30.50
2022-08-26T15:47:35.502Z,30.40
2022-08-26T15:50:52.756Z,30.40
2022-08-26T15:53:41.755Z,30.30
2022-08-26T15:56:31.627Z,30.20
2022-08-26T15:59:20.946Z,30.20
2022-08-26T16:02:09.830Z,30.10
2022-08-26T16:04:57.075Z,30.10
2022-08-26T16:07:46.980Z,30.00
2022-08-26T16:10:38.180Z,29.90
2022-08-26T16:13:25.679Z,29.70
2022-08-26T16:16:17.700Z,29.60
2022-08-26T16:19:07.675Z,29.50
2022-08-26T16:21:56.050Z,29.20
2022-08-26T16:24:44.046Z,29.10
2022-08-26T16:27:33.673Z,29.00
2022-08-26T16:30:22.054Z,29.00
2022-08-26T16:33:10.395Z,28.80
2022-08-26T16:36:00.222Z,28.60
2022-08-26T16:38:53.529Z,28.40
2022-08-26T16:41:41.356Z,28.30
2022-08-26T16:44:44.761Z,28.20
2022-08-26T16:47:31.986Z,28.20
2022-08-26T16:50:20.841Z,28.10
2022-08-26T16:53:15.653Z,28.10
2022-08-26T16:56:04.062Z,28.00
2022-08-26T16:58:54.121Z,28.00
2022-08-26T17:01:43.543Z,27.90
2022-08-26T17:04:32.003Z,27.90
2022-08-26T17:07:19.894Z,27.90
2022-08-26T17:10:08.892Z,27.80
2022-08-26T17:12:57.126Z,27.80
2022-08-26T17:15:54.239Z,27.70
2022-08-26T17:18:47.424Z,27.70
2022-08-26T17:21:37.024Z,27.70
2022-08-26T17:24:25.376Z,27.60
2022-08-26T17:27:13.137Z,27.40
2022-08-26T17:30:00.968Z,27.30
2022-08-26T17:32:49.099Z,27.20
2022-08-26T17:35:38.691Z,27.20
2022-08-26T17:38:29.357Z,27.10
2022-08-26T17:41:17.531Z,27.00
2022-08-26T17:44:06.794Z,26.90
2022-08-26T17:46:54.496Z,26.90
2022-08-26T17:49:42.838Z,26.80
2022-08-26T17:52:32.562Z,26.80
2022-08-26T17:55:20.983Z,26.80
2022-08-26T17:58:09.790Z,26.80
2022-08-26T18:00:58.208Z,26.70
2022-08-26T18:03:46.032Z,26.70
2022-08-26T18:06:33.680Z,26.70
2022-08-26T18:09:23.218Z,26.70
2022-08-26T18:12:11.810Z,26.60
2022-08-26T18:14:59.589Z,26.50
2022-08-26T18:17:47.039Z,26.50
2022-08-26T18:20:35.498Z,26.40
2022-08-26T18:23:23.700Z,26.30
2022-08-26T18:26:20.321Z,26.20
2022-08-26T18:29:10.781Z,26.10
2022-08-26T18:31:58.457Z,26.10
2022-08-26T18:34:46.468Z,26.00
2022-08-26T18:37:35.925Z,26.00
2022-08-26T18:40:23.467Z,25.90
2022-08-26T18:43:12.830Z,25.90
2022-08-26T18:46:05.748Z,25.80
2022-08-26T18:48:54.240Z,25.70
2022-08-26T18:51:42.884Z,25.70
2022-08-26T18:54:30.740Z,25.70
2022-08-26T18:57:18.729Z,25.60
2022-08-26T19:00:09.484Z,25.50
2022-08-26T19:02:57.144Z,25.40
2022-08-26T19:05:44.823Z,25.20
2022-08-26T19:08:32.407Z,25.00
2022-08-26T19:11:32.189Z,24.80
2022-08-26T19:14:20.599Z,24.60
2022-08-26T19:17:10.120Z,24.30
2022-08-26T19:19:57.474Z,23.90
2022-08-26T19:22:46.016Z,23.20
2022-08-26T19:25:34.001Z,22.30
2022-08-26T19:28:22.422Z,21.20
2022-08-26T19:31:11.550Z,20.50
2022-08-26T19:34:00.486Z,20.10
2022-08-26T19:36:48.382Z,19.80
2022-08-26T19:39:36.173Z,19.50
2022-08-26T19:42:23.215Z,19.20
2022-08-26T19:45:25.239Z,18.80
2022-08-26T19:48:13.154Z,18.40
2022-08-26T19:51:02.155Z,18.20
2022-08-26T19:53:50.119Z,18.00
2022-08-26T19:56:37.924Z,18.00
2022-08-26T19:59:25.468Z,18.00
2022-08-26T20:02:13.822Z,18.00
2022-08-26T20:05:01.542Z,18.10
2022-08-26T20:07:51.395Z,18.10
2022-08-26T20:10:39.117Z,18.20
2022-08-26T20:13:28.912Z,18.20
2022-08-26T20:16:33.089Z,18.20
2022-08-26T20:19:37.510Z,18.20
2022-08-26T20:22:24.773Z,18.10
2022-08-26T20:25:12.614Z,18.10
2022-08-26T20:27:59.432Z,18.10
2022-08-26T20:30:47.237Z,18.20
2022-08-26T20:33:46.003Z,18.20
2022-08-26T20:36:35.062Z,18.20
2022-08-26T20:39:23.328Z,18.10
2022-08-26T20:42:20.119Z,18.10
2022-08-26T20:45:09.697Z,18.20
2022-08-26T20:47:57.571Z,18.20
2022-08-26T20:50:46.483Z,18.20
2022-08-26T20:53:34.907Z,18.30
2022-08-26T20:56:24.683Z,18.30
2022-08-26T20:59:14.323Z,18.30
2022-08-26T21:02:01.696Z,18.30
2022-08-26T21:04:49.490Z,18.20
2022-08-26T21:07:37.319Z,18.30
2022-08-26T21:10:25.086Z,18.30
2022-08-26T21:13:13.916Z,18.30
2022-08-26T21:16:03.261Z,18.30
2022-08-26T21:18:51.308Z,18.20
2022-08-26T21:21:39.288Z,18.20
2022-08-26T21:24:26.761Z,18.10
2022-08-26T21:27:17.674Z,18.10
2022-08-26T21:30:17.179Z,18.10
2022-08-26T21:33:06.387Z,18.10
2022-08-26T21:35:54.841Z,18.10
2022-08-26T21:38:43.665Z,18.10
2022-08-26T21:41:31.271Z,18.10
2022-08-26T21:44:19.747Z,18.10
2022-08-26T21:47:07.667Z,18.00
2022-08-26T21:49:57.055Z,18.00
2022-08-26T21:52:44.798Z,18.00
2022-08-26T21:55:36.682Z,18.00
2022-08-26T21:58:24.358Z,18.00
2022-08-26T22:01:13.537Z,17.90
2022-08-26T22:04:01.072Z,17.90
2022-08-26T22:06:52.331Z,17.90
2022-08-26T22:09:40.743Z,17.90
2022-08-26T22:12:32.233Z,17.90
2022-08-26T22:15:23.333Z,18.00
2022-08-26T22:18:11.304Z,18.00
2022-08-26T22:21:01.036Z,18.00
2022-08-26T22:23:50.008Z,18.10
2022-08-26T22:26:37.725Z,18.20
2022-08-26T22:29:25.848Z,18.20
2022-08-26T22:32:13.671Z,18.30
2022-08-26T22:35:01.500Z,18.30
2022-08-26T22:38:00.104Z,18.40
2022-08-26T22:40:51.878Z,18.30
2022-08-26T22:43:39.704Z,18.40
2022-08-26T22:46:28.850Z,18.40
2022-08-26T22:49:17.777Z,18.50
2022-08-26T22:52:05.252Z,18.50
2022-08-26T22:54:52.975Z,18.50
2022-08-26T22:57:42.292Z,18.50
2022-08-26T23:00:32.439Z,18.60
2022-08-26T23:03:20.688Z,18.60
2022-08-26T23:06:10.877Z,18.50
2022-08-26T23:08:59.277Z,18.50
2022-08-26T23:11:47.878Z,18.60
2022-08-26T23:14:37.658Z,18.60
2022-08-26T23:17:25.194Z,18.60
2022-08-26T23:20:15.568Z,18.60
2022-08-26T23:23:04.160Z,18.60
2022-08-26T23:25:51.483Z,18.60
2022-08-26T23:28:39.859Z,18.50
2022-08-26T23:31:28.920Z,18.60
2022-08-26T23:34:30.397Z,18.60
2022-08-26T23:37:16.734Z,18.60
2022-08-26T23:40:04.983Z,18.60
2022-08-26T23:42:52.646Z,18.60
2022-08-26T23:45:40.573Z,18.60
2022-08-26T23:48:29.905Z,18.60
2022-08-26T23:51:31.686Z,18.60
2022-08-26T23:54:18.149Z,18.60
2022-08-26T23:57:05.043Z,18.60
2022-08-26T23:59:52.498Z,18.60
